Time;durP1;ratioP1;P1;durP2;ratioP2;P2;SDS_P1;SDS_P2;PMS_P1;PMS_P2;Temp;Humidity;BMP_temperature;BMP_pressure;BME280_temperature;BME280_humidity;BME280_pressure;Samples;Min_cycle;Max_cycle;Signal;HPM_P1;HPM_P2
2022/09/30 00:00:16;;;;;;;24.25;19.52;;;13.80;99.90;;;;;;5071520;28;19904;-80
2022/09/30 00:02:42;;;;;;;24.75;19.52;;;13.80;99.90;;;;;;5072508;28;20453;-82
2022/09/30 00:05:07;;;;;;;;;;;13.90;99.90;;;;;;5072643;28;20541;-82
2022/09/30 00:07:33;;;;;;;27.02;19.23;;;13.90;99.90;;;;;;5070878;28;19916;-82
2022/09/30 00:09:58;;;;;;;;;;;13.90;99.90;;;;;;5070939;28;20039;-80
2022/09/30 00:12:26;;;;;;;22.58;18.13;;;13.90;99.90;;;;;;5070618;28;19908;-83
2022/09/30 00:14:52;;;;;;;25.55;19.10;;;13.80;99.90;;;;;;5070823;28;20126;-82
2022/09/30 00:17:17;;;;;;;;;;;13.90;99.90;;;;;;5071115;28;20035;-82
2022/09/30 00:19:43;;;;;;;22.73;17.45;;;13.90;99.90;;;;;;5071322;28;19912;-82
2022/09/30 00:22:08;;;;;;;;;;;13.90;99.90;;;;;;5071110;28;20261;-82
2022/09/30 00:24:34;;;;;;;21.85;17.35;;;13.90;99.90;;;;;;5070876;28;20376;-84
2022/09/30 00:27:00;;;;;;;30.08;20.98;;;13.90;99.90;;;;;;5070471;28;20017;-83
2022/09/30 00:29:25;;;;;;;;;;;14.10;99.90;;;;;;5071625;28;20083;-82
2022/09/30 00:31:51;;;;;;;22.83;18.65;;;14.10;99.90;;;;;;5070164;28;19919;-83
2022/09/30 00:34:18;;;;;;;;;;;14.10;99.90;;;;;;5070943;28;20020;-82
2022/09/30 00:36:47;;;;;;;23.55;17.17;;;14.20;99.90;;;;;;5070155;28;19954;-83
2022/09/30 00:39:17;;;;;;;18.73;14.27;;;14.20;99.90;;;;;;5070416;28;20036;-83
2022/09/30 00:41:45;;;;;;;19.90;14.82;;;14.30;99.90;;;;;;5070276;28;20502;-82
2022/09/30 00:44:50;;;;;;;19.73;13.63;;;14.30;99.90;;;;;;5071703;28;20473;-83
2022/09/30 00:47:34;;;;;;;18.05;13.52;;;14.30;99.90;;;;;;5071810;28;20063;-82
2022/09/30 00:50:12;;;;;;;19.70;14.85;;;14.40;99.90;;;;;;5060955;28;20040;-83
2022/09/30 00:52:38;;;;;;;23.00;13.63;;;14.40;99.90;;;;;;5050419;28;20033;-83
2022/09/30 00:55:07;;;;;;;;;;;14.30;99.90;;;;;;5032967;28;20472;-81
2022/09/30 00:57:33;;;;;;;36.47;17.35;;;14.30;99.90;;;;;;5032330;28;19915;-81
2022/09/30 01:00:00;;;;;;;35.92;19.73;;;14.20;99.90;;;;;;5031500;28;20121;-82
2022/09/30 01:02:26;;;;;;;27.27;19.25;;;14.20;99.90;;;;;;5031809;28;20037;-81
2022/09/30 01:04:53;;;;;;;;;;;14.10;99.90;;;;;;5050982;28;20021;-81
2022/09/30 01:07:20;;;;;;;41.42;26.27;;;14.00;99.90;;;;;;5032031;28;19969;-81
2022/09/30 01:09:47;;;;;;;25.55;18.90;;;14.00;99.90;;;;;;5032377;28;20032;-82
2022/09/30 01:12:18;;;;;;;24.75;15.05;;;13.90;99.90;;;;;;5032473;28;20688;-82
2022/09/30 01:14:45;;;;;;;23.10;17.15;;;13.80;99.90;;;;;;5032462;28;20028;-83
2022/09/30 01:17:17;;;;;;;28.80;18.58;;;13.80;99.90;;;;;;5032324;28;20066;-82
2022/09/30 01:20:16;;;;;;;29.13;19.73;;;13.80;99.90;;;;;;5032153;28;20170;-81
2022/09/30 01:22:58;;;;;;;27.92;18.77;;;13.80;99.90;;;;;;5032233;28;20082;-82
2022/09/30 01:26:05;;;;;;;22.90;15.63;;;13.80;99.90;;;;;;5050050;28;20025;-83
2022/09/30 01:29:00;;;;;;;23.45;14.70;;;13.80;99.90;;;;;;5049729;28;20394;-82
2022/09/30 01:31:48;;;;;;;28.10;18.42;;;13.70;99.90;;;;;;5049722;28;20122;-81
2022/09/30 01:34:50;;;;;;;21.33;14.85;;;13.80;99.90;;;;;;5049948;28;20401;-82
2022/09/30 01:37:39;;;;;;;22.70;15.25;;;13.70;99.90;;;;;;5032367;28;20021;-82
2022/09/30 01:40:13;;;;;;;31.88;19.05;;;13.70;99.90;;;;;;5049939;28;20386;-83
2022/09/30 01:43:15;;;;;;;24.85;16.30;;;13.70;99.90;;;;;;5049618;28;20544;-81
2022/09/30 01:45:54;;;;;;;39.33;21.90;;;13.80;99.90;;;;;;5045618;28;20033;-80
2022/09/30 01:48:47;;;;;;;37.47;19.67;;;13.80;99.90;;;;;;5031609;28;20029;-81
2022/09/30 01:51:21;;;;;;;39.28;20.25;;;13.80;99.90;;;;;;5031454;28;20049;-82
2022/09/30 01:54:20;;;;;;;46.08;21.35;;;13.80;99.90;;;;;;5031153;28;20025;-82
2022/09/30 01:56:51;;;;;;;33.42;18.35;;;13.80;99.90;;;;;;5031493;28;20032;-82
2022/09/30 01:59:26;;;;;;;27.73;18.33;;;13.80;99.90;;;;;;5031267;28;20035;-81
2022/09/30 02:02:01;;;;;;;33.35;18.48;;;13.70;99.90;;;;;;5049564;28;20056;-83
2022/09/30 02:04:35;;;;;;;31.63;17.20;;;13.80;99.90;;;;;;5049969;28;20100;-83
2022/09/30 02:07:06;;;;;;;23.05;14.02;;;13.80;99.90;;;;;;5049596;28;20032;-82
2022/09/30 02:10:05;;;;;;;23.38;14.30;;;13.80;99.90;;;;;;5031933;28;20081;-82
2022/09/30 02:12:36;;;;;;;18.73;11.52;;;13.70;99.90;;;;;;5049273;28;20037;-82
2022/09/30 02:15:10;;;;;;;17.48;10.27;;;13.70;99.90;;;;;;5029948;28;20017;-82
2022/09/30 02:17:45;;;;;;;14.98;10.13;;;13.70;99.90;;;;;;5049398;28;20029;-82
2022/09/30 02:20:28;;;;;;;17.10;9.35;;;13.70;99.90;;;;;;5033824;28;20021;-82
2022/09/30 02:23:32;;;;;;;11.70;8.57;;;13.70;99.90;;;;;;5031975;28;20125;-82
2022/09/30 02:26:23;;;;;;;9.75;7.45;;;13.70;99.90;;;;;;5019281;28;20064;-82
2022/09/30 02:29:03;;;;;;;12.30;8.32;;;13.70;99.90;;;;;;5031274;28;20033;-81
2022/09/30 02:31:33;;;;;;;15.38;8.70;;;13.80;99.90;;;;;;5031191;28;20044;-82
2022/09/30 02:34:10;;;;;;;11.43;9.07;;;13.80;99.90;;;;;;5049432;28;20044;-83
2022/09/30 02:36:52;;;;;;;10.27;7.70;;;13.90;99.90;;;;;;5031649;28;20024;-81
2022/09/30 02:39:30;;;;;;;7.88;6.60;;;14.00;99.90;;;;;;5049081;28;20040;-82
2022/09/30 02:42:10;;;;;;;8.90;7.15;;;14.10;99.90;;;;;;5031590;28;20021;-83
2022/09/30 02:44:37;;;;;;;10.30;7.65;;;14.10;99.90;;;;;;5031503;28;20025;-83
2022/09/30 02:47:21;;;;;;;9.20;7.47;;;14.00;99.90;;;;;;5031896;28;20047;-83
2022/09/30 02:49:53;;;;;;;7.28;6.55;;;14.00;99.90;;;;;;5044864;28;20520;-82
2022/09/30 02:52:25;;;;;;;5.03;4.50;;;14.00;99.90;;;;;;5069260;28;20040;-83
2022/09/30 02:55:16;;;;;;;3.97;3.45;;;13.90;99.90;;;;;;5069569;28;20021;-83
2022/09/30 02:58:20;;;;;;;4.55;3.80;;;13.90;99.90;;;;;;5068053;28;20124;-83
2022/09/30 03:00:46;;;;;;;8.75;4.00;;;13.90;99.90;;;;;;5065362;28;20036;-83
2022/09/30 03:03:32;;;;;;;4.45;3.70;;;13.80;99.90;;;;;;5068123;28;20025;-83
2022/09/30 03:05:58;;;;;;;6.35;4.00;;;13.80;99.90;;;;;;5069222;28;20039;-83
2022/09/30 03:08:24;;;;;;;;;;;13.90;99.90;;;;;;5068350;28;20025;-83
2022/09/30 03:10:51;;;;;;;5.20;3.00;;;13.80;99.90;;;;;;5068177;28;20293;-83
2022/09/30 03:13:32;;;;;;;6.78;2.88;;;13.80;99.90;;;;;;5069315;28;20532;-83
2022/09/30 03:16:16;;;;;;;4.72;3.10;;;13.80;99.90;;;;;;5067917;28;20111;-83
2022/09/30 03:19:03;;;;;;;5.57;3.80;;;13.80;99.90;;;;;;5068599;28;20049;-82
2022/09/30 03:21:35;;;;;;;;;;;13.80;99.90;;;;;;5068226;28;20048;-83
2022/09/30 03:24:15;;;;;;;2.63;1.60;;;13.80;99.90;;;;;;5067829;28;20011;-82
2022/09/30 03:27:05;;;;;;;2.85;1.90;;;13.80;99.90;;;;;;5070747;28;20029;-81
2022/09/30 03:29:39;;;;;;;2.78;1.85;;;13.80;99.90;;;;;;5071152;28;20120;-82
2022/09/30 03:32:26;;;;;;;5.50;3.13;;;13.80;99.90;;;;;;5072436;28;20036;-82
2022/09/30 03:35:05;;;;;;;3.92;2.92;;;13.90;99.90;;;;;;5071480;28;20020;-82
2022/09/30 03:37:55;;;;;;;6.65;3.15;;;13.80;99.90;;;;;;5072856;28;20035;-82
2022/09/30 03:40:31;;;;;;;5.65;3.80;;;13.80;99.90;;;;;;5071534;28;20035;-82
2022/09/30 03:43:04;;;;;;;10.95;4.07;;;13.80;99.90;;;;;;5071372;28;20115;-81
2022/09/30 03:45:53;;;;;;;7.50;4.35;;;13.90;99.90;;;;;;5072555;28;20041;-82
2022/09/30 03:48:21;;;;;;;5.25;4.38;;;13.80;99.90;;;;;;5070557;28;20077;-81
2022/09/30 03:50:47;;;;;;;5.18;4.05;;;13.90;99.90;;;;;;5070248;28;20139;-82
2022/09/30 03:53:13;;;;;;;4.93;4.38;;;13.80;99.90;;;;;;5070843;28;20029;-80
2022/09/30 03:55:49;;;;;;;;;;;13.90;99.90;;;;;;5070832;28;20040;-79
2022/09/30 03:58:17;;;;;;;8.27;6.40;;;13.80;99.90;;;;;;5070379;28;19920;-80
2022/09/30 04:00:53;;;;;;;7.43;4.80;;;13.80;99.90;;;;;;5070162;28;20024;-83
2022/09/30 04:03:20;;;;;;;6.93;4.13;;;13.90;99.90;;;;;;5070958;28;20035;-80
2022/09/30 04:05:47;;;;;;;9.07;3.63;;;13.90;99.90;;;;;;5070032;28;20029;-80
2022/09/30 04:08:13;;;;;;;4.88;3.95;;;14.00;99.90;;;;;;5070605;28;20025;-82
2022/09/30 04:10:40;;;;;;;6.07;4.28;;;13.90;99.90;;;;;;5072300;28;20039;-82
2022/09/30 04:13:07;;;;;;;6.72;3.85;;;13.90;99.90;;;;;;5071257;28;20382;-82
2022/09/30 04:15:33;;;;;;;5.85;4.43;;;13.80;99.90;;;;;;5071787;28;20051;-82
2022/09/30 04:17:59;;;;;;;6.88;3.90;;;13.80;99.90;;;;;;5072734;28;20476;-83
2022/09/30 04:20:24;;;;;;;;;;;13.80;99.90;;;;;;5071907;28;20116;-83
2022/09/30 04:22:50;;;;;;;5.60;4.05;;;13.80;99.90;;;;;;5071532;28;20311;-82
2022/09/30 04:25:16;;;;;;;5.65;2.92;;;13.70;99.90;;;;;;5071374;28;20172;-84
2022/09/30 04:27:41;;;;;;;7.53;3.40;;;13.80;99.90;;;;;;5072509;28;20067;-82
2022/09/30 04:30:07;;;;;;;;;;;13.70;99.90;;;;;;5071107;28;20064;-83
2022/09/30 04:32:32;;;;;;;3.03;2.17;;;13.80;99.90;;;;;;5070368;28;19919;-81
2022/09/30 04:34:58;;;;;;;;;;;13.80;99.90;;;;;;5070439;28;20062;-81
2022/09/30 04:37:23;;;;;;;4.63;2.97;;;13.80;99.90;;;;;;5068088;28;20376;-82
2022/09/30 04:39:49;;;;;;;;;;;13.80;99.90;;;;;;5071440;28;20058;-80
2022/09/30 04:42:16;;;;;;;4.80;3.20;;;13.80;99.90;;;;;;5071902;28;20371;-82
2022/09/30 04:44:41;;;;;;;4.70;3.13;;;13.90;99.90;;;;;;5069847;28;20401;-81
2022/09/30 04:47:07;;;;;;;;;;;13.80;99.90;;;;;;5070046;28;20027;-84
2022/09/30 04:49:32;;;;;;;2.92;1.30;;;13.80;99.90;;;;;;5071070;28;19923;-82
2022/09/30 04:51:58;;;;;;;6.47;1.50;;;13.90;99.90;;;;;;5070325;28;20479;-83
2022/09/30 04:54:24;;;;;;;2.60;1.63;;;14.00;99.90;;;;;;5070927;28;20062;-83
2022/09/30 04:56:49;;;;;;;;;;;14.00;99.90;;;;;;5071278;28;20060;-81
2022/09/30 04:59:15;;;;;;;5.78;2.03;;;14.00;99.90;;;;;;5070810;28;20360;-82
2022/09/30 05:01:42;;;;;;;3.95;1.98;;;14.00;99.90;;;;;;5071469;28;20112;-82
2022/09/30 05:04:08;;;;;;;3.28;2.05;;;13.90;99.90;;;;;;5065959;28;20079;-83
2022/09/30 05:06:34;;;;;;;2.47;1.33;;;14.00;99.90;;;;;;5058374;28;20115;-83
2022/09/30 05:08:59;;;;;;;;;;;14.00;99.90;;;;;;5052433;28;20155;-83
2022/09/30 05:11:26;;;;;;;2.72;1.10;;;13.90;99.90;;;;;;5052204;28;19917;-84
2022/09/30 05:13:52;;;;;;;3.35;1.50;;;14.00;99.90;;;;;;5065759;28;20036;-84
2022/09/30 05:16:18;;;;;;;2.00;1.02;;;14.00;99.90;;;;;;5071899;28;20020;-83
2022/09/30 05:18:45;;;;;;;;;;;14.00;99.90;;;;;;5071272;28;20032;-84
2022/09/30 05:21:15;;;;;;;5.10;1.77;;;14.00;99.90;;;;;;5069967;28;19912;-82
2022/09/30 05:23:41;;;;;;;3.42;1.95;;;14.00;99.90;;;;;;5072035;28;20029;-83
2022/09/30 05:26:07;;;;;;;;;;;14.00;99.90;;;;;;5053050;28;20440;-84
2022/09/30 05:28:33;;;;;;;2.92;1.50;;;14.00;99.90;;;;;;5052356;28;20369;-83
2022/09/30 05:31:03;;;;;;;;;;;14.10;99.90;;;;;;5071214;28;20070;-84
2022/09/30 05:33:29;;;;;;;3.55;2.42;;;14.20;99.90;;;;;;5071869;28;19947;-84
2022/09/30 05:35:58;;;;;;;;;;;14.10;99.90;;;;;;5072186;28;20055;-85
2022/09/30 05:38:24;;;;;;;6.10;3.03;;;14.20;99.90;;;;;;5070716;28;19957;-85
2022/09/30 05:40:49;;;;;;;;;;;14.20;99.90;;;;;;5069734;28;20033;-85
2022/09/30 05:43:15;;;;;;;6.10;3.30;;;14.20;99.90;;;;;;5063662;28;19936;-84
2022/09/30 05:45:40;;;;;;;;;;;14.20;99.90;;;;;;5070854;28;20032;-83
2022/09/30 05:48:06;;;;;;;7.78;4.93;;;14.30;99.90;;;;;;5069576;28;19908;-83
2022/09/30 05:50:32;;;;;;;6.63;5.07;;;14.30;99.90;;;;;;5050098;28;20055;-84
2022/09/30 05:52:59;;;;;;;;;;;14.30;99.90;;;;;;5050775;28;20398;-84
2022/09/30 05:55:24;;;;;;;9.23;7.07;;;14.30;99.90;;;;;;5050063;28;19905;-84
2022/09/30 05:57:50;;;;;;;;;;;14.30;99.90;;;;;;5057286;28;20040;-83
2022/09/30 06:00:17;;;;;;;15.23;8.88;;;14.20;99.90;;;;;;5066567;28;19916;-83
2022/09/30 06:02:43;;;;;;;16.55;11.10;;;14.30;99.90;;;;;;5069117;28;20024;-82
2022/09/30 06:05:09;;;;;;;;;;;14.30;99.90;;;;;;5070581;28;20668;-83
2022/09/30 06:07:36;;;;;;;16.80;7.80;;;14.30;99.90;;;;;;5069085;28;19935;-83
2022/09/30 06:10:03;;;;;;;13.30;11.90;;;14.30;99.90;;;;;;5071090;28;20474;-85
2022/09/30 06:12:29;;;;;;;18.65;15.75;;;14.20;99.90;;;;;;5071583;28;20032;-85
2022/09/30 06:14:55;;;;;;;;;;;14.10;99.90;;;;;;5071073;28;20104;-85
2022/09/30 06:17:21;;;;;;;8.88;6.97;;;14.20;99.90;;;;;;5070413;28;19908;-83
2022/09/30 06:19:48;;;;;;;7.20;6.40;;;14.20;99.90;;;;;;5069542;28;20401;-83
2022/09/30 06:22:17;;;;;;;7.45;5.40;;;14.20;99.90;;;;;;5070377;28;20120;-85
2022/09/30 06:24:43;;;;;;;9.27;6.38;;;14.20;99.90;;;;;;5058060;28;20087;-84
2022/09/30 06:27:09;;;;;;;13.70;11.63;;;14.20;99.90;;;;;;5049636;28;20128;-84
2022/09/30 06:29:35;;;;;;;12.15;8.27;;;14.20;99.90;;;;;;5049508;28;20068;-84
2022/09/30 06:32:01;;;;;;;;;;;14.30;99.90;;;;;;5049898;28;20057;-84
2022/09/30 06:34:26;;;;;;;10.15;8.13;;;14.20;99.90;;;;;;5050027;28;19959;-84
2022/09/30 06:36:53;;;;;;;14.85;9.82;;;14.20;99.90;;;;;;5052008;28;20541;-87
2022/09/30 06:39:18;;;;;;;9.02;6.63;;;14.30;99.90;;;;;;5068755;28;20019;-85
2022/09/30 06:41:44;;;;;;;;;;;14.30;99.90;;;;;;5071893;28;20051;-86
2022/09/30 06:44:10;;;;;;;10.18;6.45;;;14.30;99.90;;;;;;5070484;28;19916;-85
2022/09/30 06:46:35;;;;;;;;;;;14.30;99.90;;;;;;5071104;28;20029;-85
2022/09/30 06:49:02;;;;;;;9.95;7.55;;;14.30;99.90;;;;;;5071703;28;19904;-85
2022/09/30 06:51:32;;;;;;;12.02;7.65;;;14.30;99.90;;;;;;5023414;28;20132;-85
2022/09/30 06:53:58;;;;;;;6.00;4.75;;;14.20;99.90;;;;;;5014330;28;20026;-86
2022/09/30 06:56:24;;;;;;;6.25;4.63;;;14.20;99.90;;;;;;5017466;28;20029;-86
2022/09/30 06:58:50;;;;;;;;;;;14.20;99.90;;;;;;5021488;28;20033;-85
2022/09/30 07:01:16;;;;;;;4.65;3.35;;;14.10;99.90;;;;;;5035798;28;20293;-86
2022/09/30 07:03:44;;;;;;;7.00;5.82;;;14.00;99.90;;;;;;5035139;28;20027;-85
2022/09/30 07:06:12;;;;;;;11.60;6.97;;;14.00;99.90;;;;;;5055230;28;20132;-85
2022/09/30 07:08:38;;;;;;;9.30;6.15;;;14.00;99.90;;;;;;5037506;28;20028;-84
2022/09/30 07:11:15;;;;;;;8.68;6.70;;;14.10;99.90;;;;;;5037393;28;20136;-85
2022/09/30 07:13:44;;;;;;;9.32;7.78;;;14.00;99.90;;;;;;5037307;28;20032;-85
2022/09/30 07:16:10;;;;;;;10.95;9.25;;;14.10;99.90;;;;;;5054523;28;20025;-85
2022/09/30 07:18:37;;;;;;;9.30;7.10;;;14.10;99.90;;;;;;5037637;28;20025;-85
2022/09/30 07:21:03;;;;;;;6.40;4.90;;;14.10;99.90;;;;;;5037400;28;20572;-85
2022/09/30 07:23:30;;;;;;;8.95;5.97;;;14.20;99.90;;;;;;5036899;28;20376;-84
2022/09/30 07:25:59;;;;;;;12.50;8.68;;;14.20;99.90;;;;;;5024759;28;20029;-86
2022/09/30 07:28:30;;;;;;;7.63;5.25;;;14.30;99.90;;;;;;5030740;28;20035;-85
2022/09/30 07:30:57;;;;;;;7.82;5.72;;;14.30;99.90;;;;;;5029383;28;20132;-84
2022/09/30 07:33:25;;;;;;;9.82;6.07;;;14.20;99.90;;;;;;5037065;28;20115;-85
2022/09/30 07:35:55;;;;;;;8.95;6.60;;;14.30;99.90;;;;;;5054788;28;20033;-83
2022/09/30 07:38:24;;;;;;;11.45;7.28;;;14.30;99.90;;;;;;5054740;28;20087;-85
2022/09/30 07:41:17;;;;;;;14.25;8.65;;;14.10;99.90;;;;;;5037030;28;20167;-85
2022/09/30 07:43:45;;;;;;;16.20;10.50;;;14.10;99.90;;;;;;5036666;28;20021;-86
2022/09/30 07:46:13;;;;;;;14.75;9.85;;;14.00;99.90;;;;;;5037277;28;20071;-86
2022/09/30 07:48:49;;;;;;;14.13;11.05;;;14.00;99.90;;;;;;5036454;28;20021;-84
2022/09/30 07:51:22;;;;;;;16.38;11.77;;;14.00;99.90;;;;;;5053639;28;20045;-85
2022/09/30 07:53:56;;;;;;;13.05;11.63;;;14.10;99.90;;;;;;5036052;28;20036;-85
2022/09/30 07:56:22;;;;;;;16.08;13.77;;;14.10;99.90;;;;;;5035996;28;20083;-84
2022/09/30 07:58:52;;;;;;;16.85;12.52;;;14.10;99.90;;;;;;5053472;28;20036;-84
2022/09/30 08:01:17;;;;;;;18.17;14.23;;;14.10;99.90;;;;;;5024372;28;20517;-85
2022/09/30 08:03:46;;;;;;;;;;;14.20;99.90;;;;;;5035736;28;20119;-84
2022/09/30 08:06:15;;;;;;;18.92;13.90;;;14.20;99.90;;;;;;5035398;28;19909;-84
2022/09/30 08:08:42;;;;;;;20.58;15.13;;;14.30;99.90;;;;;;5036237;28;20037;-84
2022/09/30 08:11:09;;;;;;;22.50;14.90;;;14.30;99.90;;;;;;5035734;28;20064;-85
2022/09/30 08:13:35;;;;;;;16.80;14.02;;;14.30;99.90;;;;;;5035570;28;20401;-84
2022/09/30 08:16:00;;;;;;;;;;;14.30;99.90;;;;;;5032550;28;20036;-85
2022/09/30 08:18:26;;;;;;;27.98;16.48;;;14.30;99.90;;;;;;5033982;28;19905;-85
2022/09/30 08:20:52;;;;;;;21.55;16.13;;;14.30;99.90;;;;;;5032870;28;20029;-85
2022/09/30 08:23:18;;;;;;;;;;;14.30;99.90;;;;;;5028953;28;20025;-86
2022/09/30 08:25:43;;;;;;;24.85;17.67;;;14.30;99.90;;;;;;5017099;28;20016;-87
2022/09/30 08:28:09;;;;;;;;;;;14.30;99.90;;;;;;5015833;28;20498;-87
2022/09/30 08:30:36;;;;;;;26.05;21.00;;;14.30;99.90;;;;;;5016891;28;19913;-86
2022/09/30 08:33:01;;;;;;;22.70;18.38;;;14.30;99.90;;;;;;5016636;28;20029;-88
2022/09/30 08:35:27;;;;;;;;;;;14.50;99.90;;;;;;5034784;28;20022;-85
2022/09/30 08:37:53;;;;;;;21.00;14.65;;;14.50;99.90;;;;;;5016255;28;19912;-86
2022/09/30 08:40:32;;;;;;;17.70;13.13;;;14.60;99.90;;;;;;5034611;28;20025;-87
2022/09/30 08:43:07;;;;;;;22.20;13.82;;;14.60;99.90;;;;;;5016902;28;20025;-87
2022/09/30 08:45:50;;;;;;;16.20;11.82;;;14.60;99.90;;;;;;5033737;28;20017;-85
2022/09/30 08:48:32;;;;;;;22.92;14.45;;;14.60;99.90;;;;;;5039072;28;20029;-86
2022/09/30 08:51:00;;;;;;;16.77;14.88;;;14.60;99.90;;;;;;5044516;28;20053;-86
2022/09/30 08:53:29;;;;;;;15.75;13.15;;;14.70;99.90;;;;;;5019779;28;20029;-85
2022/09/30 08:56:01;;;;;;;11.13;9.90;;;14.60;99.90;;;;;;5021277;28;20100;-84
2022/09/30 08:58:39;;;;;;;13.18;11.23;;;14.50;99.90;;;;;;5015435;28;20091;-85
2022/09/30 09:01:14;;;;;;;13.05;8.80;;;14.50;99.90;;;;;;5014573;28;20413;-85
2022/09/30 09:03:40;;;;;;;16.17;10.63;;;14.40;99.90;;;;;;5015152;28;20557;-85
2022/09/30 09:06:08;;;;;;;12.93;9.43;;;14.40;99.90;;;;;;5014063;28;20029;-84
2022/09/30 09:08:59;;;;;;;15.88;11.13;;;14.50;99.90;;;;;;5014527;28;20049;-84
2022/09/30 09:12:21;;;;;;;12.65;9.52;;;14.50;99.90;;;;;;5015385;28;20128;-86
2022/09/30 09:14:53;;;;;;;18.83;12.70;;;14.40;99.90;;;;;;4917752;29;20024;-84
2022/09/30 09:18:01;;;;;;;18.52;12.18;;;14.50;99.90;;;;;;4932974;29;20105;-85
2022/09/30 09:20:40;;;;;;;109.03;52.05;;;14.50;99.90;;;;;;4994912;28;20025;-85
2022/09/30 09:23:10;;;;;;;54.55;35.50;;;14.40;99.90;;;;;;5015650;28;20040;-84
2022/09/30 09:25:36;;;;;;;60.95;43.65;;;14.50;99.90;;;;;;5038535;28;20021;-86
2022/09/30 09:28:21;;;;;;;61.17;39.60;;;14.50;99.90;;;;;;5023664;28;20406;-84
2022/09/30 09:30:51;;;;;;;30.83;25.25;;;14.60;99.90;;;;;;5012474;28;20030;-85
2022/09/30 09:33:25;;;;;;;27.52;23.05;;;14.50;99.90;;;;;;5029289;28;20367;-84
2022/09/30 09:35:53;;;;;;;18.42;15.48;;;14.60;99.90;;;;;;5034490;28;20519;-84
2022/09/30 09:38:52;;;;;;;19.92;14.73;;;14.60;99.90;;;;;;5033846;28;20370;-85
2022/09/30 09:41:44;;;;;;;15.05;13.45;;;14.60;99.90;;;;;;5015049;28;20022;-85
2022/09/30 09:44:48;;;;;;;18.60;13.02;;;14.70;99.90;;;;;;5036418;28;20021;-86
2022/09/30 09:47:15;;;;;;;12.77;11.45;;;14.80;99.90;;;;;;5011846;28;20072;-86
2022/09/30 09:49:54;;;;;;;12.60;11.35;;;15.00;99.90;;;;;;5021682;28;20120;-84
2022/09/30 09:52:56;;;;;;;11.65;8.88;;;15.20;99.90;;;;;;5050477;28;20048;-85
2022/09/30 09:55:22;;;;;;;10.30;9.02;;;15.40;99.90;;;;;;5050121;28;20098;-83
2022/09/30 09:58:13;;;;;;;10.50;9.50;;;15.40;99.90;;;;;;5051753;28;20021;-85
2022/09/30 10:03:20;;;;;;;8.25;7.43;;;15.70;99.90;;;;;;5050985;28;20033;-84
2022/09/30 10:06:02;;;;;;;8.98;5.85;;;15.80;99.90;;;;;;5049634;28;20021;-83
2022/09/30 10:08:30;;;;;;;7.53;6.35;;;15.90;99.90;;;;;;5050955;28;20024;-83
2022/09/30 10:11:02;;;;;;;7.10;6.32;;;15.80;99.90;;;;;;5050501;28;20090;-86
2022/09/30 10:13:37;;;;;;;6.95;6.25;;;15.70;99.90;;;;;;5050171;28;20033;-84
2022/09/30 10:16:03;;;;;;;6.25;5.65;;;15.70;99.90;;;;;;5048896;28;20051;-84
2022/09/30 10:18:32;;;;;;;5.38;4.88;;;15.70;99.90;;;;;;5049622;28;20032;-84
2022/09/30 10:21:20;;;;;;;6.45;5.05;;;15.80;99.90;;;;;;5050179;28;20021;-85
2022/09/30 10:23:46;;;;;;;5.45;4.95;;;15.80;99.90;;;;;;5049914;28;20087;-84
2022/09/30 10:26:23;;;;;;;6.70;5.20;;;15.80;99.90;;;;;;5050857;28;20098;-84
2022/09/30 10:29:05;;;;;;;6.00;5.32;;;15.80;99.90;;;;;;5052413;28;20036;-85
2022/09/30 10:31:31;;;;;;;7.95;5.63;;;15.80;99.90;;;;;;5050501;28;20398;-85
2022/09/30 10:34:10;;;;;;;7.18;6.47;;;15.70;99.90;;;;;;5050143;28;20052;-86
2022/09/30 10:36:39;;;;;;;10.25;7.07;;;15.60;99.90;;;;;;5056021;28;20555;-86
2022/09/30 10:39:38;;;;;;;8.68;7.15;;;15.60;99.90;;;;;;5054884;28;20035;-85
2022/09/30 10:42:20;;;;;;;8.82;7.97;;;15.50;99.90;;;;;;5055669;28;20036;-85
2022/09/30 10:44:51;;;;;;;8.68;7.78;;;15.50;99.90;;;;;;5055883;28;20021;-86
2022/09/30 10:47:20;;;;;;;10.25;8.45;;;15.40;99.90;;;;;;5053927;28;20812;-84
2022/09/30 10:49:55;;;;;;;9.80;8.48;;;15.40;99.90;;;;;;5054165;28;20099;-85
2022/09/30 10:52:27;;;;;;;9.23;7.93;;;15.40;99.90;;;;;;5055599;28;20425;-85
2022/09/30 10:54:58;;;;;;;9.50;7.70;;;15.50;99.90;;;;;;5055145;28;20700;-86
2022/09/30 10:57:29;;;;;;;8.23;7.43;;;15.50;99.90;;;;;;5054116;28;20024;-85
2022/09/30 11:00:00;;;;;;;9.93;8.48;;;15.50;99.90;;;;;;5053953;28;20509;-86
2022/09/30 11:02:35;;;;;;;10.18;8.73;;;15.50;99.90;;;;;;5054547;28;20032;-85
2022/09/30 11:05:23;;;;;;;10.48;8.93;;;15.50;99.90;;;;;;5054216;28;20082;-86
2022/09/30 11:07:52;;;;;;;10.55;8.63;;;15.60;99.90;;;;;;5054288;28;20025;-87
2022/09/30 11:10:28;;;;;;;11.07;8.85;;;15.70;99.90;;;;;;5055296;28;20028;-86
2022/09/30 11:13:21;;;;;;;9.32;8.32;;;15.80;99.90;;;;;;5054177;28;20517;-86
2022/09/30 11:16:02;;;;;;;11.80;8.02;;;16.00;99.90;;;;;;5053736;28;20032;-86
2022/09/30 11:18:48;;;;;;;9.90;7.88;;;16.00;99.90;;;;;;5054976;28;20029;-85
2022/09/30 11:21:22;;;;;;;9.52;8.45;;;15.90;99.90;;;;;;5055106;28;20100;-86
2022/09/30 11:24:04;;;;;;;8.43;7.28;;;15.90;99.90;;;;;;5054547;28;20025;-86
2022/09/30 11:26:39;;;;;;;7.18;6.47;;;16.00;99.90;;;;;;5054040;28;20146;-85
2022/09/30 11:29:17;;;;;;;8.35;7.05;;;16.00;99.90;;;;;;5055412;28;20025;-86
2022/09/30 11:31:57;;;;;;;10.45;7.43;;;16.10;99.90;;;;;;5054788;28;20040;-85
2022/09/30 11:34:55;;;;;;;6.05;5.45;;;16.20;99.90;;;;;;5053679;28;20016;-85
2022/09/30 11:37:49;;;;;;;5.45;4.85;;;16.40;99.90;;;;;;5054058;28;20494;-86
2022/09/30 11:40:37;;;;;;;6.35;5.10;;;16.50;99.90;;;;;;5055530;28;20029;-86
2022/09/30 11:43:51;;;;;;;6.72;5.68;;;16.50;99.90;;;;;;5055545;28;20180;-86
2022/09/30 11:46:32;;;;;;;5.80;4.85;;;16.50;99.90;;;;;;4996193;28;20049;-86
2022/09/30 11:49:22;;;;;;;6.25;5.32;;;16.50;99.90;;;;;;5053469;28;20040;-85
2022/09/30 11:52:19;;;;;;;4.95;4.38;;;16.50;99.90;;;;;;5053760;28;20041;-85
2022/09/30 11:54:58;;;;;;;5.22;4.57;;;16.30;99.90;;;;;;5051796;28;20013;-84
2022/09/30 11:57:36;;;;;;;5.65;4.63;;;16.20;99.90;;;;;;5052953;28;20100;-84
2022/09/30 12:00:16;;;;;;;5.00;4.15;;;16.00;99.90;;;;;;5051955;28;20111;-83
2022/09/30 12:02:59;;;;;;;5.75;5.15;;;15.90;99.90;;;;;;5052325;28;20477;-84
2022/09/30 12:05:51;;;;;;;7.07;5.28;;;15.80;99.90;;;;;;5053178;28;20031;-85
2022/09/30 12:08:32;;;;;;;6.75;6.05;;;15.70;99.90;;;;;;5053497;28;20068;-85
2022/09/30 12:11:09;;;;;;;6.63;5.95;;;15.60;99.90;;;;;;5052482;28;20117;-83
2022/09/30 12:13:50;;;;;;;7.35;5.82;;;15.60;99.90;;;;;;5053311;28;20033;-84
2022/09/30 12:16:23;;;;;;;7.88;7.03;;;15.50;99.90;;;;;;5053124;28;20021;-84
2022/09/30 12:18:55;;;;;;;10.93;6.60;;;15.50;99.90;;;;;;5052573;28;20024;-84
2022/09/30 12:21:29;;;;;;;9.73;7.55;;;15.50;99.90;;;;;;5052943;28;20493;-84
2022/09/30 12:24:02;;;;;;;11.82;7.75;;;15.50;99.90;;;;;;5051676;28;20082;-85
2022/09/30 12:26:28;;;;;;;8.60;7.80;;;15.60;99.90;;;;;;5053300;28;20370;-84
2022/09/30 12:32:08;;;;;;;9.70;6.57;;;15.70;99.90;;;;;;5052959;28;20036;-85
2022/09/30 12:35:14;;;;;;;6.70;5.97;;;15.70;99.90;;;;;;5053067;28;20017;-85
2022/09/30 12:38:04;;;;;;;8.43;7.55;;;15.60;99.90;;;;;;5052061;28;20055;-85
2022/09/30 12:40:39;;;;;;;9.63;6.18;;;15.60;99.90;;;;;;5051630;28;20083;-85
2022/09/30 12:43:21;;;;;;;9.03;6.73;;;15.60;99.90;;;;;;5051814;28;20036;-81
2022/09/30 12:46:08;;;;;;;10.32;8.23;;;15.60;99.90;;;;;;5051751;28;20025;-85
2022/09/30 12:48:36;;;;;;;12.35;9.88;;;15.60;99.90;;;;;;5061887;28;20025;-85
2022/09/30 12:51:03;;;;;;;12.43;10.68;;;15.70;99.90;;;;;;5062275;28;20044;-85
2022/09/30 12:53:32;;;;;;;15.35;12.88;;;15.90;99.90;;;;;;5072143;28;20207;-84
2022/09/30 12:56:08;;;;;;;11.85;10.27;;;16.00;99.90;;;;;;5071566;28;20016;-85
2022/09/30 12:58:42;;;;;;;10.80;8.75;;;16.30;99.90;;;;;;5072433;28;20025;-84
2022/09/30 13:01:20;;;;;;;9.45;8.48;;;16.50;99.90;;;;;;5072455;28;20839;-82
2022/09/30 13:03:49;;;;;;;12.20;10.93;;;16.80;99.90;;;;;;5072004;28;20103;-84
2022/09/30 13:06:16;;;;;;;8.13;7.32;;;17.10;99.90;;;;;;5071115;28;20493;-84
2022/09/30 13:08:42;;;;;;;7.63;6.35;;;17.30;99.90;;;;;;5070970;28;20028;-83
2022/09/30 13:11:38;;;;;;;5.75;4.97;;;17.50;99.90;;;;;;5070959;28;20039;-85
2022/09/30 13:14:31;;;;;;;6.18;3.63;;;17.60;99.90;;;;;;5072299;28;20074;-86
2022/09/30 13:17:06;;;;;;;6.38;5.75;;;17.50;99.90;;;;;;5072663;28;20020;-85
2022/09/30 13:19:39;;;;;;;5.75;4.93;;;17.40;99.90;;;;;;5071342;28;20028;-84
2022/09/30 13:22:18;;;;;;;9.50;4.43;;;17.20;99.90;;;;;;5071140;28;20516;-84
2022/09/30 13:25:04;;;;;;;4.97;4.43;;;17.00;99.90;;;;;;5072158;28;20063;-86
2022/09/30 13:28:26;;;;;;;5.43;4.45;;;16.90;99.90;;;;;;5071770;28;20058;-83